createdAt,value
2023-03-26T00:01:39.074Z,1.70
2023-03-26T00:04:07.899Z,1.60
2023-03-26T00:06:40.085Z,1.80
2023-03-26T00:09:10.368Z,2.10
2023-03-26T00:11:38.009Z,1.70
2023-03-26T00:14:05.717Z,1.90
2023-03-26T00:16:33.826Z,1.40
2023-03-26T00:19:02.684Z,1.60
2023-03-26T00:21:31.327Z,1.50
2023-03-26T00:24:04.432Z,1.80
2023-03-26T00:26:34.631Z,2.00
2023-03-26T00:29:03.643Z,1.60
2023-03-26T00:31:31.879Z,1.50
2023-03-26T00:34:03.216Z,1.70
2023-03-26T00:38:58.316Z,1.60
2023-03-26T00:41:27.002Z,1.80
2023-03-26T00:43:57.465Z,1.90
2023-03-26T00:46:27.857Z,2.00
2023-03-26T00:48:58.886Z,1.40
2023-03-26T00:51:28.568Z,1.40
2023-03-26T00:53:57.602Z,1.90
2023-03-26T00:56:25.514Z,1.40
2023-03-26T00:58:53.008Z,2.00
2023-03-26T01:01:30.397Z,1.70
2023-03-26T01:04:28.352Z,1.60
2023-03-26T01:06:58.605Z,1.50
2023-03-26T01:09:34.107Z,1.90
2023-03-26T01:12:06.675Z,1.70
2023-03-26T01:14:34.250Z,1.50
2023-03-26T01:17:06.104Z,1.70
2023-03-26T01:19:45.719Z,1.90
2023-03-26T01:22:22.641Z,1.50
2023-03-26T01:24:56.391Z,1.60
2023-03-26T01:27:48.944Z,2.00
2023-03-26T01:30:37.846Z,1.70
2023-03-26T01:33:14.566Z,1.80
2023-03-26T01:36:06.743Z,2.10
2023-03-26T01:38:46.809Z,2.00
2023-03-26T01:41:37.124Z,1.80
2023-03-26T01:44:14.546Z,2.40
2023-03-26T01:46:43.178Z,2.50
2023-03-26T01:49:13.254Z,2.00
2023-03-26T01:51:42.611Z,2.00
2023-03-26T01:54:20.003Z,2.00
2023-03-26T01:56:58.923Z,2.20
2023-03-26T02:00:15.424Z,2.00
2023-03-26T02:02:59.259Z,2.30
2023-03-26T02:05:37.901Z,1.70
2023-03-26T02:08:35.534Z,2.30
2023-03-26T02:11:13.657Z,2.80
2023-03-26T02:13:44.884Z,2.30
2023-03-26T02:16:16.598Z,2.60
2023-03-26T02:18:47.422Z,2.60
2023-03-26T02:21:21.613Z,2.50
2023-03-26T02:23:57.635Z,2.30
2023-03-26T02:26:25.568Z,2.30
2023-03-26T02:28:52.917Z,2.40
2023-03-26T02:31:21.789Z,2.50
2023-03-26T02:33:49.534Z,2.30
2023-03-26T02:36:18.513Z,2.40
2023-03-26T02:38:46.673Z,2.10
2023-03-26T02:41:14.152Z,2.50
2023-03-26T02:43:41.487Z,2.00
2023-03-26T02:46:09.078Z,2.70
2023-03-26T02:48:36.504Z,2.30
2023-03-26T02:51:06.711Z,1.90
2023-03-26T02:53:34.105Z,2.00
2023-03-26T02:56:01.484Z,2.20
2023-03-26T02:58:30.204Z,2.20
2023-03-26T03:00:57.861Z,2.20
2023-03-26T03:03:27.482Z,2.10
2023-03-26T03:05:55.968Z,2.30
2023-03-26T03:08:26.504Z,2.60
2023-03-26T03:11:07.641Z,2.00
2023-03-26T03:13:35.016Z,2.40
2023-03-26T03:16:02.474Z,2.00
2023-03-26T03:18:29.895Z,2.30
2023-03-26T03:20:57.263Z,2.10
2023-03-26T03:23:24.617Z,1.90
2023-03-26T03:25:52.731Z,1.80
2023-03-26T03:28:20.422Z,1.90
2023-03-26T03:30:49.030Z,2.00
2023-03-26T03:33:19.232Z,1.80
2023-03-26T03:35:49.563Z,2.50
2023-03-26T03:38:19.234Z,1.80
2023-03-26T03:40:46.697Z,1.40
2023-03-26T03:43:14.094Z,1.40
2023-03-26T03:45:41.466Z,1.20
2023-03-26T03:48:08.878Z,1.60
2023-03-26T03:50:36.558Z,1.60
2023-03-26T03:53:05.712Z,1.50
2023-03-26T03:55:33.172Z,1.30
2023-03-26T03:58:00.658Z,1.40
2023-03-26T04:00:28.072Z,1.60
2023-03-26T04:02:56.392Z,1.20
2023-03-26T04:05:23.876Z,1.00
2023-03-26T04:07:51.231Z,1.40
2023-03-26T04:10:18.805Z,1.10
2023-03-26T04:12:46.399Z,0.90
2023-03-26T04:15:13.911Z,0.90
2023-03-26T04:17:45.364Z,0.80
2023-03-26T04:22:44.248Z,0.70
2023-03-26T04:25:13.155Z,0.70
2023-03-26T04:27:43.423Z,0.80
2023-03-26T04:30:15.733Z,0.80
2023-03-26T04:32:44.735Z,0.70
2023-03-26T04:35:14.832Z,1.00
2023-03-26T04:37:44.495Z,0.80
2023-03-26T04:40:20.451Z,0.90
2023-03-26T04:42:48.274Z,0.70
2023-03-26T04:45:22.671Z,0.80
2023-03-26T04:47:51.085Z,1.00
2023-03-26T04:50:18.633Z,0.80
2023-03-26T04:52:46.290Z,0.90
2023-03-26T04:55:56.991Z,1.30
2023-03-26T04:58:30.212Z,0.80
2023-03-26T05:01:01.141Z,0.80
2023-03-26T05:03:40.674Z,1.10
2023-03-26T05:06:11.940Z,0.90
2023-03-26T05:08:39.301Z,1.00
2023-03-26T05:11:11.449Z,0.70
2023-03-26T05:13:42.749Z,0.70
2023-03-26T05:16:11.569Z,0.80
2023-03-26T05:18:39.520Z,0.70
2023-03-26T05:21:07.307Z,0.90
2023-03-26T05:23:34.644Z,0.80
2023-03-26T05:26:02.063Z,0.70
2023-03-26T05:28:29.367Z,0.70
2023-03-26T05:30:57.282Z,0.70
2023-03-26T05:33:24.928Z,0.90
2023-03-26T05:36:09.535Z,1.00
2023-03-26T05:38:37.104Z,0.70
2023-03-26T05:41:08.274Z,1.00
2023-03-26T05:43:36.323Z,1.00
2023-03-26T05:46:04.003Z,1.00
2023-03-26T05:48:31.579Z,0.90
2023-03-26T05:50:59.102Z,0.70
2023-03-26T05:53:27.646Z,1.60
2023-03-26T05:55:58.305Z,1.10
2023-03-26T05:58:31.574Z,1.30
2023-03-26T06:01:06.140Z,1.00
2023-03-26T06:03:34.051Z,1.10
2023-03-26T06:06:01.536Z,1.00
2023-03-26T06:08:29.471Z,1.10
2023-03-26T06:11:07.279Z,1.10
2023-03-26T06:13:34.685Z,1.10
2023-03-26T06:16:02.237Z,1.10
2023-03-26T06:18:29.791Z,1.10
2023-03-26T06:20:57.543Z,1.80
2023-03-26T06:23:25.289Z,1.20
2023-03-26T06:25:52.700Z,1.40
2023-03-26T06:28:20.229Z,0.90
2023-03-26T06:30:48.457Z,0.90
2023-03-26T06:33:16.531Z,1.50
2023-03-26T06:35:45.537Z,1.20
2023-03-26T06:38:13.141Z,1.20
2023-03-26T06:40:40.792Z,1.30
2023-03-26T06:43:10.834Z,1.10
2023-03-26T06:45:38.569Z,1.20
2023-03-26T06:48:06.415Z,1.30
2023-03-26T06:50:33.953Z,1.40
2023-03-26T06:53:01.360Z,1.30
2023-03-26T06:55:28.971Z,1.40
2023-03-26T06:57:58.196Z,2.00
2023-03-26T07:00:26.086Z,1.10
2023-03-26T07:02:53.614Z,1.40
2023-03-26T07:05:21.188Z,1.90
2023-03-26T07:07:50.437Z,1.50
2023-03-26T07:10:18.073Z,1.70
2023-03-26T07:12:45.959Z,1.30
2023-03-26T07:15:13.545Z,1.70
2023-03-26T07:17:41.156Z,1.60
2023-03-26T07:20:09.535Z,2.10
2023-03-26T07:22:37.629Z,1.40
2023-03-26T07:25:06.406Z,1.60
2023-03-26T07:28:06.560Z,1.70
2023-03-26T07:31:11.651Z,1.60
2023-03-26T07:33:57.269Z,1.70
2023-03-26T07:36:48.417Z,1.50
2023-03-26T07:39:41.156Z,1.50
2023-03-26T07:42:31.972Z,1.80
2023-03-26T07:45:14.585Z,1.80
2023-03-26T07:47:43.151Z,1.70
2023-03-26T07:50:21.603Z,1.70
2023-03-26T07:53:01.777Z,2.40
2023-03-26T07:55:29.642Z,2.40
2023-03-26T07:58:18.208Z,2.50
2023-03-26T08:00:53.742Z,1.80
2023-03-26T08:03:59.178Z,1.80
2023-03-26T08:07:03.687Z,1.70
2023-03-26T08:09:50.317Z,2.50
2023-03-26T08:13:02.467Z,1.80
2023-03-26T08:15:44.048Z,2.10
2023-03-26T08:18:41.562Z,2.50
2023-03-26T08:21:17.157Z,2.10
2023-03-26T08:24:11.027Z,2.00
2023-03-26T08:27:06.873Z,2.00
2023-03-26T08:29:58.126Z,1.90
2023-03-26T08:32:26.011Z,2.00
2023-03-26T08:34:53.498Z,2.00
2023-03-26T08:37:21.086Z,1.60
2023-03-26T08:39:48.448Z,1.80
2023-03-26T08:43:25.825Z,2.00
2023-03-26T08:46:35.930Z,2.20
2023-03-26T08:49:17.092Z,1.40
2023-03-26T08:52:15.384Z,2.00
2023-03-26T08:55:04.430Z,2.00
2023-03-26T08:57:55.504Z,1.80
2023-03-26T09:00:41.180Z,1.90
2023-03-26T09:03:20.418Z,2.00
2023-03-26T09:06:32.965Z,1.30
2023-03-26T09:09:31.288Z,1.50
2023-03-26T09:12:08.155Z,1.80
2023-03-26T09:15:13.767Z,1.40
2023-03-26T09:18:21.316Z,1.40
2023-03-26T09:21:06.578Z,1.80
2023-03-26T09:23:49.760Z,1.70
2023-03-26T09:26:51.510Z,1.50
2023-03-26T09:29:34.113Z,1.20
2023-03-26T09:32:38.187Z,1.60
2023-03-26T09:36:08.751Z,1.10
2023-03-26T09:38:57.640Z,1.00
2023-03-26T09:41:42.065Z,1.70
2023-03-26T09:44:47.986Z,0.80
2023-03-26T09:47:36.572Z,1.10
2023-03-26T09:50:16.130Z,1.10
2023-03-26T09:52:53.152Z,1.10
2023-03-26T09:55:39.381Z,1.30
2023-03-26T09:58:14.518Z,1.40
2023-03-26T10:01:01.086Z,1.50
2023-03-26T10:04:09.489Z,1.20
2023-03-26T10:06:47.285Z,1.40
2023-03-26T10:09:41.468Z,1.20
2023-03-26T10:12:44.286Z,1.60
2023-03-26T10:15:28.653Z,1.20
2023-03-26T10:18:36.585Z,1.00
2023-03-26T10:21:10.895Z,1.10
2023-03-26T10:24:10.591Z,1.20
2023-03-26T10:27:22.521Z,1.10
2023-03-26T10:30:25.912Z,0.90
2023-03-26T10:33:14.701Z,0.90
2023-03-26T10:36:19.918Z,1.60
2023-03-26T10:39:06.252Z,1.00
2023-03-26T10:42:01.078Z,1.00
2023-03-26T10:44:50.365Z,1.20
2023-03-26T10:47:56.956Z,1.10
2023-03-26T10:50:55.663Z,1.10
2023-03-26T10:53:39.264Z,1.20
2023-03-26T10:56:23.690Z,1.00
2023-03-26T10:58:51.586Z,1.20
2023-03-26T11:01:53.129Z,1.00
2023-03-26T11:04:45.709Z,1.30
2023-03-26T11:07:38.057Z,1.20
2023-03-26T11:10:30.314Z,1.20
2023-03-26T11:13:15.594Z,1.10
2023-03-26T11:16:02.987Z,1.50
2023-03-26T11:18:51.188Z,1.10
2023-03-26T11:21:25.364Z,1.40
2023-03-26T11:24:17.051Z,0.90
2023-03-26T11:27:14.890Z,1.00
2023-03-26T11:30:11.761Z,1.30
2023-03-26T11:32:52.112Z,1.20
2023-03-26T11:35:39.800Z,1.40
2023-03-26T11:38:32.968Z,1.10
2023-03-26T11:41:03.780Z,1.10
2023-03-26T11:43:36.936Z,1.30
2023-03-26T11:46:14.560Z,1.40
2023-03-26T11:48:47.185Z,1.60
2023-03-26T11:51:30.033Z,1.00
2023-03-26T11:53:57.840Z,1.00
2023-03-26T11:57:04.637Z,1.00
2023-03-26T11:59:49.134Z,1.10
2023-03-26T12:02:38.414Z,0.90
2023-03-26T12:05:26.778Z,1.00
2023-03-26T12:08:00.939Z,0.90
2023-03-26T12:10:28.473Z,1.10
2023-03-26T12:12:59.684Z,1.00
2023-03-26T12:17:58.286Z,0.90
2023-03-26T12:20:25.725Z,1.00
2023-03-26T12:22:59.262Z,1.50
2023-03-26T12:25:38.867Z,0.80
2023-03-26T12:28:19.984Z,1.20
2023-03-26T12:31:04.058Z,1.20
2023-03-26T12:33:34.689Z,0.80
2023-03-26T12:36:31.595Z,0.90
2023-03-26T12:40:06.323Z,1.30
2023-03-26T12:43:51.643Z,0.80
2023-03-26T12:44:59.227Z,1.00
2023-03-26T12:48:00.849Z,0.90
2023-03-26T12:50:34.006Z,0.80
2023-03-26T12:53:23.188Z,0.90
2023-03-26T12:55:57.241Z,0.90
2023-03-26T12:59:00.278Z,0.90
2023-03-26T13:02:02.287Z,0.90
2023-03-26T13:05:05.118Z,1.10
2023-03-26T13:07:49.575Z,0.90
2023-03-26T13:10:52.238Z,1.10
2023-03-26T13:13:54.264Z,1.10
2023-03-26T13:16:35.495Z,0.90
2023-03-26T13:21:53.906Z,1.10
2023-03-26T13:24:33.772Z,1.20
2023-03-26T13:27:28.851Z,1.00
2023-03-26T13:30:14.586Z,1.00
2023-03-26T13:32:48.677Z,0.90
2023-03-26T13:35:34.564Z,0.90
2023-03-26T13:38:37.046Z,0.90
2023-03-26T13:42:11.543Z,0.80
2023-03-26T13:45:24.845Z,0.80
2023-03-26T13:47:57.453Z,1.20
2023-03-26T13:50:31.039Z,0.90
2023-03-26T13:53:16.720Z,1.00
2023-03-26T13:55:55.881Z,0.80
2023-03-26T13:58:50.101Z,0.90
2023-03-26T14:01:34.749Z,0.90
2023-03-26T14:04:17.886Z,0.70
2023-03-26T14:07:16.435Z,0.70
2023-03-26T14:10:03.848Z,0.60
2023-03-26T14:12:51.949Z,0.70
2023-03-26T14:15:47.812Z,1.00
2023-03-26T14:18:49.356Z,0.60
2023-03-26T14:24:42.120Z,0.80
2023-03-26T14:27:19.805Z,0.80
2023-03-26T14:30:04.990Z,0.90
2023-03-26T14:33:07.282Z,0.70
2023-03-26T14:35:41.492Z,0.90
2023-03-26T14:38:39.375Z,0.80
2023-03-26T14:42:10.699Z,0.90
2023-03-26T14:45:09.469Z,1.00
2023-03-26T14:48:31.518Z,0.70
2023-03-26T14:51:12.987Z,0.60
2023-03-26T14:56:40.293Z,0.60
2023-03-26T14:59:25.868Z,0.60
2023-03-26T15:02:30.019Z,0.80
2023-03-26T15:05:15.983Z,0.80
2023-03-26T15:08:04.487Z,0.60
2023-03-26T15:11:03.037Z,0.80
2023-03-26T15:13:59.666Z,0.90
2023-03-26T15:16:57.637Z,0.90
2023-03-26T15:19:53.073Z,0.80
2023-03-26T15:23:07.447Z,0.70
2023-03-26T15:25:56.078Z,1.00
2023-03-26T15:29:06.861Z,1.00
2023-03-26T15:32:07.519Z,0.70
2023-03-26T15:34:48.746Z,0.90
2023-03-26T15:37:52.862Z,0.80
2023-03-26T15:40:30.547Z,1.00
2023-03-26T15:43:09.444Z,1.70
2023-03-26T15:45:54.051Z,0.90
2023-03-26T15:48:54.983Z,0.90
2023-03-26T15:52:00.802Z,1.00
2023-03-26T15:55:06.018Z,0.70
2023-03-26T15:58:10.530Z,0.90
2023-03-26T16:00:55.224Z,0.70
2023-03-26T16:03:48.129Z,0.90
2023-03-26T16:06:31.155Z,1.00
2023-03-26T16:09:16.471Z,0.90
2023-03-26T16:11:57.837Z,1.20
2023-03-26T16:17:12.512Z,1.90
2023-03-26T16:19:58.503Z,1.30
2023-03-26T16:22:56.070Z,1.30
2023-03-26T16:25:35.924Z,1.00
2023-03-26T16:28:39.144Z,1.00
2023-03-26T16:31:37.029Z,1.00
2023-03-26T16:34:07.892Z,0.90
2023-03-26T16:36:39.093Z,0.90
2023-03-26T16:39:07.257Z,0.80
2023-03-26T16:41:50.053Z,0.60
2023-03-26T16:44:25.817Z,0.90
2023-03-26T16:47:10.205Z,1.10
2023-03-26T16:50:08.439Z,1.40
2023-03-26T16:52:45.450Z,0.90
2023-03-26T16:55:21.577Z,1.00
2023-03-26T16:58:11.219Z,1.10
2023-03-26T17:01:07.644Z,1.20
2023-03-26T17:04:31.040Z,1.00
2023-03-26T17:07:24.178Z,1.10
2023-03-26T17:10:00.654Z,1.00
2023-03-26T17:12:51.520Z,1.10
2023-03-26T17:15:34.970Z,1.10
2023-03-26T17:18:39.111Z,0.90
2023-03-26T17:21:29.249Z,1.30
2023-03-26T17:24:27.739Z,1.10
2023-03-26T17:27:43.578Z,1.60
2023-03-26T17:30:52.507Z,1.50
2023-03-26T17:33:36.842Z,1.40
2023-03-26T17:36:13.309Z,1.70
2023-03-26T17:38:40.595Z,1.30
2023-03-26T17:41:35.269Z,1.70
2023-03-26T17:44:37.333Z,2.30
2023-03-26T17:47:16.399Z,1.70
2023-03-26T17:49:45.895Z,1.40
2023-03-26T17:52:51.244Z,1.30
2023-03-26T17:55:25.832Z,0.90
2023-03-26T17:58:00.297Z,1.20
2023-03-26T18:00:48.246Z,1.30
2023-03-26T18:03:36.005Z,1.30
2023-03-26T18:06:28.697Z,1.40
2023-03-26T18:09:06.342Z,1.10
2023-03-26T18:12:15.891Z,1.60
2023-03-26T18:15:20.381Z,1.50
2023-03-26T18:17:48.137Z,1.00
2023-03-26T18:20:25.427Z,1.40
2023-03-26T18:22:53.266Z,1.40
2023-03-26T18:25:34.012Z,1.30
2023-03-26T18:28:04.618Z,1.70
2023-03-26T18:30:32.218Z,1.80
2023-03-26T18:33:00.421Z,1.60
2023-03-26T18:35:40.635Z,1.30
2023-03-26T18:38:16.977Z,1.70
2023-03-26T18:40:46.319Z,1.50
2023-03-26T18:43:32.274Z,1.20
2023-03-26T18:46:04.142Z,1.30
2023-03-26T18:48:31.908Z,1.20
2023-03-26T18:51:06.062Z,1.30
2023-03-26T18:53:52.300Z,1.20
2023-03-26T18:56:32.201Z,1.40
2023-03-26T18:59:02.528Z,1.40
2023-03-26T19:01:33.406Z,1.50
2023-03-26T19:04:05.869Z,1.60
2023-03-26T19:06:38.469Z,1.40
2023-03-26T19:09:28.056Z,1.50
2023-03-26T19:11:57.943Z,1.70
2023-03-26T19:14:27.113Z,1.70
2023-03-26T19:17:02.189Z,1.40
2023-03-26T19:19:37.035Z,1.60
2023-03-26T19:22:06.047Z,1.40
2023-03-26T19:24:34.012Z,1.40
2023-03-26T19:27:02.664Z,1.50
2023-03-26T19:29:34.176Z,1.30
2023-03-26T19:32:05.470Z,1.30
2023-03-26T19:34:39.131Z,1.50
2023-03-26T19:37:32.425Z,1.40
2023-03-26T19:40:30.225Z,1.70
2023-03-26T19:42:58.139Z,1.50
2023-03-26T19:45:26.293Z,1.80
2023-03-26T19:48:03.993Z,1.80
2023-03-26T19:50:55.090Z,2.00
2023-03-26T19:53:33.364Z,2.10
2023-03-26T19:56:16.028Z,2.50
2023-03-26T19:58:43.511Z,2.20
2023-03-26T20:01:19.051Z,2.00
2023-03-26T20:03:50.523Z,2.00
2023-03-26T20:06:25.575Z,2.60
2023-03-26T20:08:58.364Z,2.70
2023-03-26T20:11:34.215Z,2.50
2023-03-26T20:14:02.063Z,2.60
2023-03-26T20:16:35.020Z,2.40
2023-03-26T20:19:02.501Z,2.30
2023-03-26T20:21:34.870Z,2.70
2023-03-26T20:24:03.051Z,3.00
2023-03-26T20:26:30.380Z,3.00
2023-03-26T20:28:58.324Z,2.80
2023-03-26T20:31:26.810Z,3.60
2023-03-26T20:33:54.714Z,3.60
2023-03-26T20:36:32.999Z,3.60
2023-03-26T20:39:06.047Z,4.10
2023-03-26T20:44:03.811Z,3.80
2023-03-26T20:46:31.994Z,4.50
2023-03-26T20:48:59.938Z,4.00
2023-03-26T20:51:30.822Z,4.90
2023-03-26T20:53:58.276Z,4.90
2023-03-26T20:56:25.654Z,4.80
2023-03-26T20:59:09.998Z,4.40
2023-03-26T21:01:38.583Z,5.10
2023-03-26T21:04:07.311Z,5.40
2023-03-26T21:06:34.836Z,4.50
2023-03-26T21:09:03.029Z,4.10
2023-03-26T21:11:45.884Z,4.40
2023-03-26T21:14:30.259Z,3.00
2023-03-26T21:16:58.197Z,3.30
2023-03-26T21:19:26.166Z,3.60
2023-03-26T21:22:12.176Z,3.50
2023-03-26T21:24:51.293Z,2.90
2023-03-26T21:27:48.001Z,3.00
2023-03-26T21:30:16.826Z,3.40
2023-03-26T21:32:45.492Z,3.10
2023-03-26T21:35:14.968Z,3.40
2023-03-26T21:37:45.644Z,4.50
2023-03-26T21:40:16.455Z,3.00
2023-03-26T21:42:51.017Z,3.60
2023-03-26T21:45:20.018Z,3.70
2023-03-26T21:47:48.763Z,2.90
2023-03-26T21:50:20.725Z,3.50
2023-03-26T21:52:49.854Z,3.10
2023-03-26T21:55:21.187Z,3.40
2023-03-26T22:01:01.390Z,3.40
2023-03-26T22:04:17.179Z,3.00
2023-03-26T22:06:55.845Z,2.60
2023-03-26T22:09:33.846Z,2.60
2023-03-26T22:12:05.399Z,2.50
2023-03-26T22:14:34.500Z,2.60
2023-03-26T22:17:01.818Z,3.00
2023-03-26T22:19:30.450Z,2.40
2023-03-26T22:21:58.389Z,2.60
2023-03-26T22:24:26.176Z,2.60
2023-03-26T22:26:53.732Z,2.60
2023-03-26T22:29:21.067Z,2.50
2023-03-26T22:31:48.540Z,2.60
2023-03-26T22:34:15.989Z,2.50
2023-03-26T22:36:43.701Z,2.80
2023-03-26T22:39:12.216Z,2.90
2023-03-26T22:41:39.618Z,2.50
2023-03-26T22:44:19.050Z,2.90
2023-03-26T22:46:51.284Z,2.40
2023-03-26T22:49:19.129Z,2.50
2023-03-26T22:51:46.824Z,2.10
2023-03-26T22:54:14.689Z,2.70
2023-03-26T22:56:43.633Z,2.10
2023-03-26T22:59:11.348Z,2.20
2023-03-26T23:01:39.177Z,3.20
2023-03-26T23:04:07.097Z,3.10
2023-03-26T23:06:34.633Z,2.40
2023-03-26T23:09:02.223Z,3.10
2023-03-26T23:11:30.651Z,2.90
2023-03-26T23:13:58.150Z,2.70
2023-03-26T23:16:26.609Z,2.60
2023-03-26T23:18:54.097Z,2.40
2023-03-26T23:21:22.462Z,3.20
2023-03-26T23:23:52.165Z,2.30
2023-03-26T23:26:19.731Z,2.80
2023-03-26T23:28:47.859Z,2.50
2023-03-26T23:31:15.306Z,3.00
2023-03-26T23:33:45.610Z,2.60
2023-03-26T23:36:17.769Z,2.10
2023-03-26T23:38:50.032Z,2.10
2023-03-26T23:41:23.167Z,2.60
2023-03-26T23:43:54.277Z,3.00
2023-03-26T23:46:25.722Z,1.90
2023-03-26T23:48:53.604Z,2.80
2023-03-26T23:51:22.362Z,2.20
2023-03-26T23:53:49.909Z,2.60
2023-03-26T23:56:17.765Z,2.20
2023-03-26T23:58:45.281Z,1.90
